Startpagina
METAR-TAF:

METAR-TAF

Vliegvelden :

Albert, Frankrijk

breedte: 49-58-21N, lengte: 002-41-29E, hoogte: 111 m

METAR: ontbreekt

Tijdstip: 11:05 (10:05 UTC)

Verwachting

Dit bericht is 1 uur en het 47 minuten geleden gemaakt, om 08:18 UTC
Verwachting geldig van 19 om 09 UTC tot 19 om 18 UTC
Wind 9 kt uit het zuidzuidoosten
Zicht: 5000 m
Verspreide wolken op 600 ft
Geheel bewolkt op 3000 ft
nevel
Tijdelijke
van 19 om 09 UTC tot 19 om 11 UTC
Zicht: 2000 m
Gebroken wolken op 600 ft
Tijdelijke
van 19 om 11 UTC tot 19 om 18 UTC
Zicht: 2000 m
Geheel bewolkt op 300 ft
motregen

TAF: LFAQ 190818Z 1909/1918 16009KT 5000 BR SCT006 OVC030 TEMPO 1909/1911 2000 BKN006 TEMPO 1911/1918 2000 DZ OVC003

Waarnemingen en weersverwachtingen van meer dan 4000 vliegvelden (METAR en TAF).

De beschikbare stations zijn de gele en rode punten op de kaart.

Ga met uw muis naar het station om de naam te zien.

Klik dan om waarnemingen en weersverwachtingen te zien.

kaart wijzigen: klik op de groene knoppen met een zwart kruis om in te zoomen, op de groene knop met een streepje om uit te zoomen of op de groene pijlen voor aangrenzende kaarten.


METAR-TAF: